Time,TemperatureF,DewpointF,PressureIn,WindDirection,WindDirectionDegrees,WindSpeedMPH,WindSpeedGustMPH,Humidity,HourlyPrecipIn,Conditions,Clouds,dailyrainin,SoftwareType,DateUTC
2013-09-04 00:01:00,68.0,63.7,30.01,NNE,14,0.0,0.0,86,0.00,,,0.00,VWS V13.01,2013-09-04 05:01:00,
2013-09-04 00:06:00,67.9,64.2,30.01,SSE,150,0.0,2.7,88,0.00,,,0.00,VWS V13.01,2013-09-04 05:06:00,
2013-09-04 00:11:00,67.9,63.8,30.01,NNE,14,2.7,2.7,87,0.00,,,0.00,VWS V13.01,2013-09-04 05:11:00,
2013-09-04 00:16:00,68.2,64.2,30.01,NNE,14,0.0,2.2,87,0.00,,,0.00,VWS V13.01,2013-09-04 05:16:00,
2013-09-04 00:21:00,68.4,64.1,30.01,NNE,14,0.0,0.0,86,0.00,,,0.00,VWS V13.01,2013-09-04 05:21:00,
2013-09-04 00:26:00,68.4,63.7,30.01,NNE,14,0.0,0.0,85,0.00,,,0.00,VWS V13.01,2013-09-04 05:26:00,
2013-09-04 00:31:00,68.6,63.6,30.01,NNE,14,0.0,0.0,84,0.00,,,0.00,VWS V13.01,2013-09-04 05:31:00,
2013-09-04 00:36:00,68.4,63.4,30.01,NNE,14,0.0,0.0,84,0.00,,,0.00,VWS V13.01,2013-09-04 05:36:00,
2013-09-04 00:41:00,68.0,62.7,30.01,North,359,0.0,0.0,83,0.00,,,0.00,VWS V13.01,2013-09-04 05:41:00,
2013-09-04 00:46:00,67.9,62.5,30.01,North,359,0.0,0.0,83,0.00,,,0.00,VWS V13.01,2013-09-04 05:46:00,
2013-09-04 00:51:00,67.9,62.2,30.01,North,359,0.0,0.0,82,0.00,,,0.00,VWS V13.01,2013-09-04 05:51:00,
2013-09-04 00:56:00,67.7,62.0,30.01,North,359,0.0,0.0,82,0.00,,,0.00,VWS V13.01,2013-09-04 05:56:00,
2013-09-04 01:01:00,67.3,62.3,29.98,North,6,0.0,0.0,84,0.00,,,0.00,VWS V13.01,2013-09-04 06:01:00,
2013-09-04 01:06:00,67.0,62.3,29.98,North,6,0.0,0.0,85,0.00,,,0.00,VWS V13.01,2013-09-04 06:06:00,
2013-09-04 01:11:00,66.8,62.5,29.98,North,6,0.0,0.0,86,0.00,,,0.00,VWS V13.01,2013-09-04 06:11:00,
2013-09-04 01:16:00,66.6,62.6,30.01,North,6,0.0,0.0,87,0.00,,,0.00,VWS V13.01,2013-09-04 06:16:00,
2013-09-04 01:21:00,66.6,62.9,30.01,North,6,0.0,0.0,88,0.00,,,0.00,VWS V13.01,2013-09-04 06:21:00,
2013-09-04 01:26:00,66.4,62.8,30.01,North,6,0.0,0.0,88,0.00,,,0.00,VWS V13.01,2013-09-04 06:26:00,
2013-09-04 01:31:00,66.4,62.8,30.01,North,6,0.0,0.0,88,0.00,,,0.00,VWS V13.01,2013-09-04 06:31:00,
2013-09-04 01:36:00,66.4,62.8,30.01,North,6,0.0,0.0,88,0.00,,,0.00,VWS V13.01,2013-09-04 06:36:00,
2013-09-04 01:41:00,66.2,62.6,30.01,North,6,0.0,0.0,88,0.00,,,0.00,VWS V13.01,2013-09-04 06:41:00,
2013-09-04 01:46:00,66.2,62.6,30.01,North,6,0.0,0.0,88,0.00,,,0.00,VWS V13.01,2013-09-04 06:46:00,
2013-09-04 01:51:00,66.1,62.4,30.01,North,6,0.0,0.0,88,0.00,,,0.00,VWS V13.01,2013-09-04 06:51:00,
2013-09-04 01:56:00,66.1,62.7,30.01,North,6,0.0,0.0,89,0.00,,,0.00,VWS V13.01,2013-09-04 06:56:00,
2013-09-04 02:01:00,65.9,62.5,30.01,North,6,0.0,0.0,89,0.00,,,0.00,VWS V13.01,2013-09-04 07:01:00,
2013-09-04 02:06:00,65.9,62.9,30.01,North,6,0.0,0.0,90,0.00,,,0.00,VWS V13.01,2013-09-04 07:06:00,
2013-09-04 02:11:00,65.7,63.0,30.01,North,6,0.0,0.0,91,0.00,,,0.00,VWS V13.01,2013-09-04 07:11:00,
2013-09-04 02:16:00,65.5,62.8,30.01,North,6,0.0,0.0,91,0.00,,,0.00,VWS V13.01,2013-09-04 07:16:00,
2013-09-04 02:21:00,65.3,63.0,30.01,North,6,0.0,0.0,92,0.00,,,0.00,VWS V13.01,2013-09-04 07:21:00,
2013-09-04 02:26:00,65.2,62.8,30.01,North,6,0.0,0.0,92,0.00,,,0.00,VWS V13.01,2013-09-04 07:26:00,
2013-09-04 02:31:00,65.2,62.8,30.01,North,6,0.0,0.0,92,0.00,,,0.00,VWS V13.01,2013-09-04 07:31:00,
2013-09-04 02:36:00,65.2,62.8,30.01,North,6,0.0,0.0,92,0.00,,,0.00,VWS V13.01,2013-09-04 07:36:00,
2013-09-04 02:41:00,65.2,63.1,30.01,North,6,0.0,0.0,93,0.00,,,0.00,VWS V13.01,2013-09-04 07:41:00,
2013-09-04 02:46:00,65.2,63.1,30.01,NNE,28,0.0,0.0,93,0.00,,,0.00,VWS V13.01,2013-09-04 07:46:00,
2013-09-04 02:51:00,65.2,63.1,30.01,North,11,0.0,0.0,93,0.00,,,0.00,VWS V13.01,2013-09-04 07:51:00,
2013-09-04 02:56:00,65.3,62.7,30.01,North,8,0.0,0.0,91,0.00,,,0.00,VWS V13.01,2013-09-04 07:56:00,
2013-09-04 03:01:00,65.7,62.4,30.01,North,8,0.0,0.0,89,0.00,,,0.00,VWS V13.01,2013-09-04 08:01:00,
2013-09-04 03:06:00,65.7,62.4,30.01,North,8,0.0,0.0,89,0.00,,,0.00,VWS V13.01,2013-09-04 08:06:00,
2013-09-04 03:11:00,65.5,62.2,30.01,NE,35,0.0,0.0,89,0.00,,,0.00,VWS V13.01,2013-09-04 08:11:00,
2013-09-04 03:16:00,65.5,62.5,30.01,NE,37,0.0,0.0,90,0.00,,,0.00,VWS V13.01,2013-09-04 08:16:00,
2013-09-04 03:21:00,65.3,62.0,30.01,NE,37,2.2,2.2,89,0.00,,,0.00,VWS V13.01,2013-09-04 08:21:00,
2013-09-04 03:26:00,65.3,62.0,30.01,NE,37,2.7,3.1,89,0.00,,,0.00,VWS V13.01,2013-09-04 08:26:00,
2013-09-04 03:31:00,65.2,62.2,30.01,NE,37,2.2,2.7,90,0.00,,,0.00,VWS V13.01,2013-09-04 08:31:00,
2013-09-04 03:36:00,65.2,62.2,30.01,North,6,2.7,2.7,90,0.00,,,0.00,VWS V13.01,2013-09-04 08:36:00,
2013-09-04 03:41:00,65.2,62.2,30.01,NE,40,0.0,2.2,90,0.00,,,0.00,VWS V13.01,2013-09-04 08:41:00,
2013-09-04 03:46:00,65.2,61.8,30.01,NE,40,2.2,3.6,89,0.00,,,0.00,VWS V13.01,2013-09-04 08:46:00,
2013-09-04 03:51:00,65.2,61.5,30.01,NNE,13,2.2,3.6,88,0.00,,,0.00,VWS V13.01,2013-09-04 08:51:00,
2013-09-04 03:56:00,65.2,61.5,30.01,NNE,13,0.0,0.0,88,0.00,,,0.00,VWS V13.01,2013-09-04 08:56:00,
2013-09-04 04:01:00,65.2,61.5,30.01,NNE,13,0.0,2.2,88,0.00,,,0.00,VWS V13.01,2013-09-04 09:01:00,
2013-09-04 04:06:00,65.2,61.2,30.01,NNE,13,2.2,2.2,87,0.00,,,0.00,VWS V13.01,2013-09-04 09:06:00,
2013-09-04 04:11:00,65.2,61.2,30.01,NNE,13,0.0,0.0,87,0.00,,,0.00,VWS V13.01,2013-09-04 09:11:00,
2013-09-04 04:16:00,65.2,61.2,30.01,NNE,13,0.0,0.0,87,0.00,,,0.00,VWS V13.01,2013-09-04 09:16:00,
2013-09-04 04:21:00,64.8,60.8,30.01,NNE,13,0.0,0.0,87,0.00,,,0.00,VWS V13.01,2013-09-04 09:21:00,
2013-09-04 04:26:00,64.6,60.7,30.01,NNE,13,0.0,0.0,87,0.00,,,0.00,VWS V13.01,2013-09-04 09:26:00,
2013-09-04 04:31:00,64.4,61.1,30.01,NNE,13,0.0,0.0,89,0.00,,,0.00,VWS V13.01,2013-09-04 09:31:00,
2013-09-04 04:36:00,64.3,61.0,30.01,NNE,13,0.0,0.0,89,0.00,,,0.00,VWS V13.01,2013-09-04 09:36:00,
2013-09-04 04:41:00,64.1,60.8,30.01,NNE,13,0.0,0.0,89,0.00,,,0.00,VWS V13.01,2013-09-04 09:41:00,
2013-09-04 04:46:00,64.1,61.1,30.04,NNE,13,0.0,0.0,90,0.00,,,0.00,VWS V13.01,2013-09-04 09:46:00,
2013-09-04 04:51:00,63.9,60.9,30.04,NNE,13,0.0,0.0,90,0.00,,,0.00,VWS V13.01,2013-09-04 09:51:00,
2013-09-04 04:56:00,63.9,61.2,30.04,NNE,13,0.0,0.0,91,0.00,,,0.00,VWS V13.01,2013-09-04 09:56:00,
2013-09-04 05:01:00,63.7,61.4,30.04,NNE,13,0.0,0.0,92,0.00,,,0.00,VWS V13.01,2013-09-04 10:01:00,
2013-09-04 05:06:00,63.5,61.5,30.04,NNE,13,0.0,0.0,93,0.00,,,0.00,VWS V13.01,2013-09-04 10:06:00,
2013-09-04 05:11:00,63.4,61.6,30.04,NNE,13,0.0,0.0,94,0.00,,,0.00,VWS V13.01,2013-09-04 10:11:00,
2013-09-04 05:16:00,63.2,61.4,30.04,NNE,13,0.0,0.0,94,0.00,,,0.00,VWS V13.01,2013-09-04 10:16:00,
2013-09-04 05:21:00,63.0,61.5,30.04,NNE,13,0.0,0.0,95,0.00,,,0.00,VWS V13.01,2013-09-04 10:21:00,
2013-09-04 05:26:00,62.8,61.4,30.04,NNE,13,0.0,0.0,95,0.00,,,0.00,VWS V13.01,2013-09-04 10:26:00,
2013-09-04 05:31:00,62.6,61.2,30.04,NNE,13,0.0,0.0,95,0.00,,,0.00,VWS V13.01,2013-09-04 10:31:00,
2013-09-04 05:35:00,62.5,61.0,30.04,NNE,13,0.0,0.0,95,0.00,,,0.00,VWS V13.01,2013-09-04 10:35:00,
2013-09-04 05:40:00,62.3,60.8,30.04,NNE,13,0.0,0.0,95,0.00,,,0.00,VWS V13.01,2013-09-04 10:40:00,
2013-09-04 05:45:00,62.1,60.7,30.04,NNE,13,0.0,0.0,95,0.00,,,0.00,VWS V13.01,2013-09-04 10:45:00,
2013-09-04 05:50:00,62.1,61.0,30.04,NNE,13,0.0,0.0,96,0.00,,,0.00,VWS V13.01,2013-09-04 10:50:00,
2013-09-04 05:55:00,62.1,61.2,30.04,NNE,13,0.0,0.0,97,0.00,,,0.00,VWS V13.01,2013-09-04 10:55:00,
2013-09-04 06:00:00,62.1,61.2,30.04,NNE,13,0.0,0.0,97,0.00,,,0.00,VWS V13.01,2013-09-04 11:00:00,
2013-09-04 06:05:00,62.1,62.1,30.04,NNE,13,0.0,0.0,100,0.00,,,0.00,VWS V13.01,2013-09-04 11:05:00,
2013-09-04 06:10:00,61.9,61.9,30.04,NNE,13,0.0,0.0,100,0.00,,,0.00,VWS V13.01,2013-09-04 11:10:00,
2013-09-04 06:15:00,61.9,61.9,30.04,NNE,13,0.0,0.0,100,0.00,,,0.00,VWS V13.01,2013-09-04 11:15:00,
2013-09-04 06:20:00,61.7,61.7,30.04,NNE,13,0.0,0.0,100,0.00,,,0.00,VWS V13.01,2013-09-04 11:20:00,
2013-09-04 06:25:00,61.7,61.7,30.04,NNE,13,0.0,0.0,100,0.00,,,0.00,VWS V13.01,2013-09-04 11:25:00,
2013-09-04 06:30:00,61.6,61.6,30.04,NNE,13,0.0,0.0,100,0.00,,,0.00,VWS V13.01,2013-09-04 11:30:00,
2013-09-04 06:35:00,61.6,61.6,30.04,NNE,13,0.0,0.0,100,0.00,,,0.00,VWS V13.01,2013-09-04 11:35:00,
2013-09-04 06:40:00,61.6,61.6,30.04,NNE,13,0.0,0.0,100,0.00,,,0.00,VWS V13.01,2013-09-04 11:40:00,
2013-09-04 06:45:00,61.6,61.6,30.07,NNE,13,0.0,0.0,100,0.00,,,0.00,VWS V13.01,2013-09-04 11:45:00,
2013-09-04 06:50:00,61.6,61.6,30.07,NNE,13,0.0,0.0,100,0.00,,,0.00,VWS V13.01,2013-09-04 11:50:00,
2013-09-04 06:55:00,61.6,61.6,30.07,NNE,13,0.0,0.0,100,0.00,,,0.00,VWS V13.01,2013-09-04 11:55:00,
2013-09-04 07:00:00,61.4,61.4,30.07,NNE,13,0.0,0.0,100,0.00,,,0.00,VWS V13.01,2013-09-04 12:00:00,
2013-09-04 07:05:00,61.2,61.2,30.07,NNE,13,0.0,0.0,100,0.00,,,0.00,VWS V13.01,2013-09-04 12:05:00,
2013-09-04 07:10:00,61.4,61.4,30.07,NNE,13,0.0,0.0,100,0.00,,,0.00,VWS V13.01,2013-09-04 12:10:00,
2013-09-04 07:15:00,61.4,61.4,30.07,NNE,13,0.0,0.0,100,0.00,,,0.00,VWS V13.01,2013-09-04 12:15:00,
2013-09-04 07:20:00,61.6,61.6,30.07,NNE,13,0.0,0.0,100,0.00,,,0.00,VWS V13.01,2013-09-04 12:20:00,
2013-09-04 07:25:00,61.7,61.7,30.07,NNE,13,0.0,0.0,100,0.00,,,0.00,VWS V13.01,2013-09-04 12:25:00,
2013-09-04 07:30:00,61.9,61.9,30.07,NNE,13,0.0,0.0,100,0.00,,,0.00,VWS V13.01,2013-09-04 12:30:00,
2013-09-04 07:35:00,62.1,62.1,30.07,NNE,13,0.0,0.0,100,0.00,,,0.00,VWS V13.01,2013-09-04 12:35:00,
2013-09-04 07:40:00,62.3,62.3,30.07,NNE,13,0.0,0.0,100,0.00,,,0.00,VWS V13.01,2013-09-04 12:40:00,
2013-09-04 07:45:00,62.5,62.5,30.07,NNE,13,0.0,0.0,100,0.00,,,0.00,VWS V13.01,2013-09-04 12:45:00,
2013-09-04 07:50:00,62.6,62.6,30.07,NNE,13,0.0,0.0,100,0.00,,,0.00,VWS V13.01,2013-09-04 12:50:00,
2013-09-04 07:55:00,63.0,63.0,30.07,NNE,13,0.0,0.0,100,0.00,,,0.00,VWS V13.01,2013-09-04 12:55:00,
2013-09-04 08:00:00,63.4,63.4,30.10,NNE,13,0.0,0.0,100,0.00,,,0.00,VWS V13.01,2013-09-04 13:00:00,
2013-09-04 08:05:00,63.9,63.9,30.10,NNE,13,0.0,0.0,100,0.00,,,0.00,VWS V13.01,2013-09-04 13:05:00,
2013-09-04 08:10:00,64.8,64.8,30.10,NNE,13,0.0,0.0,100,0.00,,,0.00,VWS V13.01,2013-09-04 13:10:00,
2013-09-04 08:15:00,65.5,65.5,30.10,NNE,13,0.0,0.0,100,0.00,,,0.00,VWS V13.01,2013-09-04 13:15:00,
2013-09-04 08:20:00,66.1,66.1,30.10,NNE,13,0.0,0.0,100,0.00,,,0.00,VWS V13.01,2013-09-04 13:20:00,
2013-09-04 08:25:00,66.4,66.4,30.10,NNE,13,0.0,0.0,100,0.00,,,0.00,VWS V13.01,2013-09-04 13:25:00,
2013-09-04 08:30:00,67.0,67.0,30.10,NNE,13,0.0,0.0,100,0.00,,,0.00,VWS V13.01,2013-09-04 13:30:00,
2013-09-04 08:35:00,67.5,67.2,30.10,NNE,13,0.0,0.0,99,0.00,,,0.00,VWS V13.01,2013-09-04 13:35:00,
2013-09-04 08:40:00,68.0,66.9,30.10,NNE,13,0.0,0.0,96,0.00,,,0.00,VWS V13.01,2013-09-04 13:40:00,
2013-09-04 08:45:00,68.8,63.7,30.10,North,360,0.0,0.0,84,0.00,,,0.00,VWS V13.01,2013-09-04 13:45:00,
2013-09-04 08:50:00,70.2,60.8,30.10,NNE,23,0.0,3.6,72,0.00,,,0.00,VWS V13.01,2013-09-04 13:50:00,
2013-09-04 08:55:00,71.1,61.6,30.10,NE,44,0.0,2.7,72,0.00,,,0.00,VWS V13.01,2013-09-04 13:55:00,
2013-09-04 09:00:00,72.0,62.5,30.10,ESE,123,0.0,0.0,72,0.00,,,0.00,VWS V13.01,2013-09-04 14:00:00,
2013-09-04 09:05:00,72.7,63.2,30.10,ESE,108,0.0,0.0,72,0.00,,,0.00,VWS V13.01,2013-09-04 14:05:00,
2013-09-04 09:10:00,73.8,63.4,30.10,East,93,0.0,0.0,70,0.00,,,0.00,VWS V13.01,2013-09-04 14:10:00,
2013-09-04 09:15:00,74.9,63.6,30.10,East,93,0.0,0.0,68,0.00,,,0.00,VWS V13.01,2013-09-04 14:15:00,
2013-09-04 09:20:00,75.6,61.7,30.10,NNE,30,3.1,3.1,62,0.00,,,0.00,VWS V13.01,2013-09-04 14:20:00,
2013-09-04 09:25:00,76.3,61.9,30.10,North,3,2.2,2.2,61,0.00,,,0.00,VWS V13.01,2013-09-04 14:25:00,
2013-09-04 09:30:00,76.7,61.8,30.10,East,94,3.6,3.6,60,0.00,,,0.00,VWS V13.01,2013-09-04 14:30:00,
2013-09-04 09:35:00,76.7,61.8,30.10,ESE,114,2.2,2.2,60,0.00,,,0.00,VWS V13.01,2013-09-04 14:35:00,
2013-09-04 09:40:00,77.0,61.6,30.10,East,100,2.7,2.7,59,0.00,,,0.00,VWS V13.01,2013-09-04 14:40:00,
2013-09-04 09:45:00,77.8,62.3,30.10,NE,39,3.1,3.1,59,0.00,,,0.00,VWS V13.01,2013-09-04 14:45:00,
2013-09-04 09:50:00,78.3,61.3,30.10,ENE,70,3.1,5.4,56,0.00,,,0.00,VWS V13.01,2013-09-04 14:50:00,
2013-09-04 09:55:00,78.5,62.5,30.10,ENE,78,3.1,3.1,58,0.00,,,0.00,VWS V13.01,2013-09-04 14:55:00,
2013-09-04 10:00:00,78.7,62.7,30.10,East,92,2.7,3.6,58,0.00,,,0.00,VWS V13.01,2013-09-04 15:00:00,
2013-09-04 10:05:00,79.0,63.0,30.10,NNE,29,4.9,4.9,58,0.00,,,0.00,VWS V13.01,2013-09-04 15:05:00,
2013-09-04 10:10:00,79.4,63.3,30.10,NE,53,3.1,3.1,58,0.00,,,0.00,VWS V13.01,2013-09-04 15:10:00,
2013-09-04 10:15:00,80.3,62.7,30.10,NNE,27,3.1,3.1,55,0.00,,,0.00,VWS V13.01,2013-09-04 15:15:00,
2013-09-04 10:20:00,80.6,61.9,30.10,East,94,4.0,4.0,53,0.00,,,0.00,VWS V13.01,2013-09-04 15:20:00,
2013-09-04 10:25:00,80.5,62.3,30.10,East,93,4.0,4.9,54,0.00,,,0.00,VWS V13.01,2013-09-04 15:25:00,
2013-09-04 10:30:00,80.3,62.7,30.13,NE,51,2.7,3.1,55,0.00,,,0.00,VWS V13.01,2013-09-04 15:30:00,
2013-09-04 10:35:00,80.5,61.2,30.13,NE,41,0.0,2.7,52,0.00,,,0.00,VWS V13.01,2013-09-04 15:35:00,
2013-09-04 10:40:00,80.6,61.4,30.13,East,96,3.6,3.6,52,0.00,,,0.00,VWS V13.01,2013-09-04 15:40:00,
2013-09-04 10:45:00,80.8,61.6,30.13,ESE,119,4.0,4.0,52,0.00,,,0.00,VWS V13.01,2013-09-04 15:45:00,
2013-09-04 10:50:00,81.0,61.7,30.13,East,87,2.7,2.7,52,0.00,,,0.00,VWS V13.01,2013-09-04 15:50:00,
2013-09-04 10:55:00,82.1,62.2,30.13,NNE,18,3.1,3.6,51,0.00,,,0.00,VWS V13.01,2013-09-04 15:55:00,
2013-09-04 11:00:00,82.8,62.3,30.13,NE,53,3.6,3.6,50,0.00,,,0.00,VWS V13.01,2013-09-04 16:00:00,
2013-09-04 11:05:00,83.3,62.8,30.13,NE,43,3.6,4.0,50,0.00,,,0.00,VWS V13.01,2013-09-04 16:05:00,
2013-09-04 11:10:00,83.7,62.0,30.13,SW,232,2.7,2.7,48,0.00,,,0.00,VWS V13.01,2013-09-04 16:10:00,
2013-09-04 11:15:00,84.1,63.4,30.13,NE,40,0.0,0.0,50,0.00,,,0.00,VWS V13.01,2013-09-04 16:15:00,
2013-09-04 11:20:00,85.0,63.1,30.13,NNE,29,3.1,3.6,48,0.00,,,0.00,VWS V13.01,2013-09-04 16:20:00,
2013-09-04 11:25:00,85.0,63.7,30.13,NW,309,3.1,3.1,49,0.00,,,0.00,VWS V13.01,2013-09-04 16:25:00,
2013-09-04 11:29:00,85.0,63.7,30.10,NNE,32,3.1,4.0,49,0.00,,,0.00,VWS V13.01,2013-09-04 16:29:00,
2013-09-04 11:34:00,85.3,64.0,30.10,NE,46,3.1,3.1,49,0.00,,,0.00,VWS V13.01,2013-09-04 16:34:00,
2013-09-04 11:39:00,85.7,63.8,30.10,NE,44,0.0,3.1,48,0.00,,,0.00,VWS V13.01,2013-09-04 16:39:00,
2013-09-04 11:44:00,85.5,63.6,30.10,ESE,113,2.2,5.8,48,0.00,,,0.00,VWS V13.01,2013-09-04 16:44:00,
2013-09-04 11:49:00,85.1,63.3,30.10,East,95,5.8,5.8,48,0.00,,,0.00,VWS V13.01,2013-09-04 16:49:00,
2013-09-04 11:54:00,84.6,62.8,30.10,South,170,3.1,3.1,48,0.00,,,0.00,VWS V13.01,2013-09-04 16:54:00,
2013-09-04 11:59:00,84.6,62.8,30.10,SE,125,2.2,4.0,48,0.00,,,0.00,VWS V13.01,2013-09-04 16:59:00,
2013-09-04 12:04:00,85.3,63.4,30.10,NE,39,3.6,3.6,48,0.00,,,0.00,VWS V13.01,2013-09-04 17:04:00,
2013-09-04 12:09:00,85.7,63.8,30.10,SE,143,4.9,5.4,48,0.00,,,0.00,VWS V13.01,2013-09-04 17:09:00,
2013-09-04 12:14:00,85.5,63.6,30.10,ESE,120,2.2,5.8,48,0.00,,,0.00,VWS V13.01,2013-09-04 17:14:00,
2013-09-04 12:19:00,85.9,63.9,30.10,ESE,114,4.9,4.9,48,0.00,,,0.00,VWS V13.01,2013-09-04 17:19:00,
2013-09-04 12:24:00,85.5,63.6,30.10,ESE,111,3.6,3.6,48,0.00,,,0.00,VWS V13.01,2013-09-04 17:24:00,
2013-09-04 12:29:00,85.7,63.8,30.10,WNW,302,2.7,2.7,48,0.00,,,0.00,VWS V13.01,2013-09-04 17:29:00,
2013-09-04 12:34:00,86.4,64.4,30.10,South,181,5.8,6.3,48,0.00,,,0.00,VWS V13.01,2013-09-04 17:34:00,
2013-09-04 12:39:00,85.7,63.2,30.10,South,191,3.1,3.1,47,0.00,,,0.00,VWS V13.01,2013-09-04 17:39:00,
2013-09-04 12:44:00,86.2,64.2,30.10,East,86,4.0,5.4,48,0.00,,,0.00,VWS V13.01,2013-09-04 17:44:00,
2013-09-04 12:49:00,86.6,64.6,30.10,East,90,3.6,4.0,48,0.00,,,0.00,VWS V13.01,2013-09-04 17:49:00,
2013-09-04 12:54:00,86.6,64.6,30.10,NNE,16,3.6,4.0,48,0.00,,,0.00,VWS V13.01,2013-09-04 17:54:00,
2013-09-04 12:59:00,86.9,64.3,30.10,ENE,76,2.2,2.7,47,0.00,,,0.00,VWS V13.01,2013-09-04 17:59:00,
2013-09-04 13:04:00,87.3,64.6,30.10,West,259,2.7,2.7,47,0.00,,,0.00,VWS V13.01,2013-09-04 18:04:00,
2013-09-04 13:09:00,87.3,64.6,30.10,NE,55,0.0,4.0,47,0.00,,,0.00,VWS V13.01,2013-09-04 18:09:00,
2013-09-04 13:14:00,87.7,64.9,30.07,ENE,70,0.0,2.2,47,0.00,,,0.00,VWS V13.01,2013-09-04 18:14:00,
2013-09-04 13:19:00,88.6,65.8,30.07,NE,56,2.7,3.1,47,0.00,,,0.00,VWS V13.01,2013-09-04 18:19:00,
2013-09-04 13:24:00,88.4,65.6,30.07,ESE,115,3.6,4.0,47,0.00,,,0.00,VWS V13.01,2013-09-04 18:24:00,
2013-09-04 13:29:00,88.6,65.8,30.07,NE,55,2.7,3.1,47,0.00,,,0.00,VWS V13.01,2013-09-04 18:29:00,
2013-09-04 13:34:00,88.6,65.8,30.07,South,187,5.4,5.4,47,0.00,,,0.00,VWS V13.01,2013-09-04 18:34:00,
2013-09-04 13:39:00,88.4,65.6,30.07,SSE,159,2.7,4.0,47,0.00,,,0.00,VWS V13.01,2013-09-04 18:39:00,
2013-09-04 13:44:00,88.9,66.1,30.07,ENE,76,5.8,5.8,47,0.00,,,0.00,VWS V13.01,2013-09-04 18:44:00,
2013-09-04 13:49:00,88.9,66.1,30.07,SW,216,2.7,2.7,47,0.00,,,0.00,VWS V13.01,2013-09-04 18:49:00,
2013-09-04 13:54:00,88.9,66.1,30.07,ENE,66,5.4,5.4,47,0.00,,,0.00,VWS V13.01,2013-09-04 18:54:00,
2013-09-04 13:59:00,88.9,66.1,30.07,SSW,193,0.0,2.2,47,0.00,,,0.00,VWS V13.01,2013-09-04 18:59:00,
2013-09-04 14:04:00,89.5,66.0,30.07,East,90,2.7,3.6,46,0.00,,,0.00,VWS V13.01,2013-09-04 19:04:00,
2013-09-04 14:09:00,89.3,65.8,30.07,SE,126,5.8,5.8,46,0.00,,,0.00,VWS V13.01,2013-09-04 19:09:00,
2013-09-04 14:14:00,88.9,66.1,30.07,ENE,69,5.4,5.4,47,0.00,,,0.00,VWS V13.01,2013-09-04 19:14:00,
2013-09-04 14:19:00,88.6,65.8,30.07,SE,129,0.0,2.7,47,0.00,,,0.00,VWS V13.01,2013-09-04 19:19:00,
2013-09-04 14:24:00,89.1,65.6,30.07,South,177,0.0,2.7,46,0.00,,,0.00,VWS V13.01,2013-09-04 19:24:00,
2013-09-04 14:29:00,89.5,66.0,30.07,ENE,69,2.2,3.1,46,0.00,,,0.00,VWS V13.01,2013-09-04 19:29:00,
2013-09-04 14:34:00,89.6,66.1,30.07,North,349,5.4,5.4,46,0.00,,,0.00,VWS V13.01,2013-09-04 19:34:00,
2013-09-04 14:39:00,89.6,66.1,30.07,NE,55,3.6,3.6,46,0.00,,,0.00,VWS V13.01,2013-09-04 19:39:00,
2013-09-04 14:44:00,90.0,66.5,30.07,NNE,32,4.0,4.0,46,0.00,,,0.00,VWS V13.01,2013-09-04 19:44:00,
2013-09-04 14:49:00,90.9,66.6,30.07,ENE,59,4.0,4.0,45,0.00,,,0.00,VWS V13.01,2013-09-04 19:49:00,
2013-09-04 14:54:00,91.1,66.8,30.07,ENE,70,2.7,3.1,45,0.00,,,0.00,VWS V13.01,2013-09-04 19:54:00,
2013-09-04 14:59:00,90.7,67.1,30.04,ESE,115,2.7,3.6,46,0.00,,,0.00,VWS V13.01,2013-09-04 19:59:00,
2013-09-04 15:04:00,90.9,66.6,30.04,NW,308,0.0,0.0,45,0.00,,,0.00,VWS V13.01,2013-09-04 20:04:00,
2013-09-04 15:09:00,91.4,67.1,30.04,ESE,118,2.2,2.7,45,0.00,,,0.00,VWS V13.01,2013-09-04 20:09:00,
2013-09-04 15:14:00,91.6,67.3,30.04,WNW,283,2.7,3.1,45,0.00,,,0.00,VWS V13.01,2013-09-04 20:14:00,
2013-09-04 15:19:00,90.7,67.1,30.04,NNE,31,3.6,3.6,46,0.00,,,0.00,VWS V13.01,2013-09-04 20:19:00,
2013-09-04 15:24:00,90.4,66.8,30.04,NE,51,3.6,3.6,46,0.00,,,0.00,VWS V13.01,2013-09-04 20:24:00,
2013-09-04 15:29:00,90.2,66.0,30.04,NNE,16,4.9,4.9,45,0.00,,,0.00,VWS V13.01,2013-09-04 20:29:00,
2013-09-04 15:34:00,90.4,66.2,30.04,NNE,28,0.0,0.0,45,0.00,,,0.00,VWS V13.01,2013-09-04 20:34:00,
2013-09-04 15:39:00,90.9,66.6,30.04,SE,143,3.6,4.5,45,0.00,,,0.00,VWS V13.01,2013-09-04 20:39:00,
2013-09-04 15:44:00,90.5,66.9,30.04,ESE,118,5.8,5.8,46,0.00,,,0.00,VWS V13.01,2013-09-04 20:44:00,
2013-09-04 15:49:00,90.2,66.6,30.04,NE,38,4.0,4.0,46,0.00,,,0.00,VWS V13.01,2013-09-04 20:49:00,
2013-09-04 15:54:00,90.4,66.8,30.04,NNE,22,3.1,3.1,46,0.00,,,0.00,VWS V13.01,2013-09-04 20:54:00,
2013-09-04 15:59:00,90.9,66.6,30.04,North,360,2.7,2.7,45,0.00,,,0.00,VWS V13.01,2013-09-04 20:59:00,
2013-09-04 16:04:00,91.1,66.8,30.04,NW,323,4.9,4.9,45,0.00,,,0.00,VWS V13.01,2013-09-04 21:04:00,
2013-09-04 16:09:00,91.4,67.1,30.04,NNW,342,2.2,3.1,45,0.00,,,0.00,VWS V13.01,2013-09-04 21:09:00,
2013-09-04 16:14:00,91.3,67.0,30.04,SSE,147,0.0,0.0,45,0.00,,,0.00,VWS V13.01,2013-09-04 21:14:00,
2013-09-04 16:19:00,90.9,66.6,30.04,SE,132,5.8,5.8,45,0.00,,,0.00,VWS V13.01,2013-09-04 21:19:00,
2013-09-04 16:24:00,90.0,65.8,30.04,East,92,3.1,3.1,45,0.00,,,0.00,VWS V13.01,2013-09-04 21:24:00,
2013-09-04 16:29:00,90.0,66.5,30.01,East,95,3.6,4.0,46,0.00,,,0.00,VWS V13.01,2013-09-04 21:29:00,
2013-09-04 16:34:00,90.5,66.9,30.01,NNE,13,3.1,3.1,46,0.00,,,0.00,VWS V13.01,2013-09-04 21:34:00,
2013-09-04 16:39:00,90.7,66.5,30.01,NNE,28,3.1,4.0,45,0.00,,,0.00,VWS V13.01,2013-09-04 21:39:00,
2013-09-04 16:44:00,91.1,66.8,30.01,East,95,3.1,3.1,45,0.00,,,0.00,VWS V13.01,2013-09-04 21:44:00,
2013-09-04 16:49:00,91.1,66.8,30.01,ESE,103,2.7,4.0,45,0.00,,,0.00,VWS V13.01,2013-09-04 21:49:00,
2013-09-04 16:54:00,91.1,66.8,30.01,NE,35,2.2,3.1,45,0.00,,,0.00,VWS V13.01,2013-09-04 21:54:00,
2013-09-04 16:58:00,91.3,67.0,30.01,ENE,72,2.7,2.7,45,0.00,,,0.00,VWS V13.01,2013-09-04 21:58:00,
2013-09-04 17:03:00,91.3,67.0,30.01,North,357,3.6,3.6,45,0.00,,,0.00,VWS V13.01,2013-09-04 22:03:00,
2013-09-04 17:08:00,91.1,66.8,30.01,NE,51,0.0,0.0,45,0.00,,,0.00,VWS V13.01,2013-09-04 22:08:00,
2013-09-04 17:13:00,91.4,67.1,30.01,ENE,70,0.0,0.0,45,0.00,,,0.00,VWS V13.01,2013-09-04 22:13:00,
2013-09-04 17:18:00,91.3,67.0,30.01,SE,129,3.1,3.6,45,0.00,,,0.00,VWS V13.01,2013-09-04 22:18:00,
2013-09-04 17:23:00,91.1,66.8,30.01,North,8,2.7,3.1,45,0.00,,,0.00,VWS V13.01,2013-09-04 22:23:00,
2013-09-04 17:28:00,90.7,67.1,30.01,North,357,2.7,2.7,46,0.00,,,0.00,VWS V13.01,2013-09-04 22:28:00,
2013-09-04 17:33:00,90.9,66.6,30.01,NE,42,2.7,3.1,45,0.00,,,0.00,VWS V13.01,2013-09-04 22:33:00,
2013-09-04 17:38:00,90.7,67.1,30.01,NE,36,3.6,4.0,46,0.00,,,0.00,VWS V13.01,2013-09-04 22:38:00,
2013-09-04 17:43:00,90.4,66.8,30.01,NNE,29,2.7,4.0,46,0.00,,,0.00,VWS V13.01,2013-09-04 22:43:00,
2013-09-04 17:48:00,90.2,66.6,30.01,NNE,19,2.2,2.2,46,0.00,,,0.00,VWS V13.01,2013-09-04 22:48:00,
2013-09-04 17:53:00,90.5,66.9,30.01,ENE,71,2.2,3.1,46,0.00,,,0.00,VWS V13.01,2013-09-04 22:53:00,
2013-09-04 17:58:00,90.4,66.8,30.01,NNE,12,3.1,4.0,46,0.00,,,0.00,VWS V13.01,2013-09-04 22:58:00,
2013-09-04 18:03:00,90.0,66.5,30.01,NNE,25,2.2,2.2,46,0.00,,,0.00,VWS V13.01,2013-09-04 23:03:00,
2013-09-04 18:08:00,89.8,66.3,30.01,NE,37,2.2,4.0,46,0.00,,,0.00,VWS V13.01,2013-09-04 23:08:00,
2013-09-04 18:13:00,89.6,66.1,30.01,NNE,24,2.7,5.4,46,0.00,,,0.00,VWS V13.01,2013-09-04 23:13:00,
2013-09-04 18:18:00,89.5,66.0,30.01,NE,47,2.7,2.7,46,0.00,,,0.00,VWS V13.01,2013-09-04 23:18:00,
2013-09-04 18:23:00,89.1,65.6,30.01,NNE,22,2.7,5.4,46,0.00,,,0.00,VWS V13.01,2013-09-04 23:23:00,
2013-09-04 18:28:00,88.6,65.8,30.01,NNE,24,2.7,3.6,47,0.00,,,0.00,VWS V13.01,2013-09-04 23:28:00,
2013-09-04 18:33:00,88.2,65.4,30.01,NE,49,3.6,3.6,47,0.00,,,0.00,VWS V13.01,2013-09-04 23:33:00,
2013-09-04 18:38:00,88.0,65.3,30.01,NE,43,2.7,3.1,47,0.00,,,0.00,VWS V13.01,2013-09-04 23:38:00,
2013-09-04 18:43:00,87.7,64.9,30.01,NNE,26,3.1,3.1,47,0.00,,,0.00,VWS V13.01,2013-09-04 23:43:00,
2013-09-04 18:48:00,87.1,64.5,30.01,NNE,17,2.7,2.7,47,0.00,,,0.00,VWS V13.01,2013-09-04 23:48:00,
2013-09-04 18:53:00,86.9,64.9,30.01,NNE,32,0.0,2.7,48,0.00,,,0.00,VWS V13.01,2013-09-04 23:53:00,
2013-09-04 18:58:00,86.6,64.6,30.01,NE,34,2.2,3.1,48,0.00,,,0.00,VWS V13.01,2013-09-04 23:58:00,
2013-09-04 19:03:00,86.2,64.2,30.01,NNE,31,2.7,2.7,48,0.00,,,0.00,VWS V13.01,2013-09-05 00:03:00,
2013-09-04 19:08:00,85.7,63.8,30.01,NE,35,2.2,2.7,48,0.00,,,0.00,VWS V13.01,2013-09-05 00:08:00,
2013-09-04 19:13:00,85.3,63.4,30.01,NNE,28,3.1,3.6,48,0.00,,,0.00,VWS V13.01,2013-09-05 00:13:00,
2013-09-04 19:18:00,84.8,62.9,30.01,NNE,33,2.2,3.1,48,0.00,,,0.00,VWS V13.01,2013-09-05 00:18:00,
2013-09-04 19:23:00,84.4,63.2,30.01,NE,34,0.0,4.0,49,0.00,,,0.00,VWS V13.01,2013-09-05 00:23:00,
2013-09-04 19:28:00,83.9,62.7,30.01,NE,34,2.2,3.1,49,0.00,,,0.00,VWS V13.01,2013-09-05 00:28:00,
2013-09-04 19:33:00,83.5,62.4,30.01,NNE,31,0.0,0.0,49,0.00,,,0.00,VWS V13.01,2013-09-05 00:33:00,
2013-09-04 19:38:00,83.0,61.9,30.01,NNE,28,0.0,2.2,49,0.00,,,0.00,VWS V13.01,2013-09-05 00:38:00,
2013-09-04 19:43:00,82.6,62.1,30.01,NNE,15,0.0,0.0,50,0.00,,,0.00,VWS V13.01,2013-09-05 00:43:00,
2013-09-04 19:48:00,82.1,61.6,30.01,NNE,12,0.0,0.0,50,0.00,,,0.00,VWS V13.01,2013-09-05 00:48:00,
2013-09-04 19:53:00,81.5,61.7,30.01,NNE,12,0.0,0.0,51,0.00,,,0.00,VWS V13.01,2013-09-05 00:53:00,
2013-09-04 19:58:00,80.6,61.4,30.01,NNE,12,0.0,0.0,52,0.00,,,0.00,VWS V13.01,2013-09-05 00:58:00,
2013-09-04 20:03:00,80.1,61.4,30.04,NNE,12,0.0,0.0,53,0.00,,,0.00,VWS V13.01,2013-09-05 01:03:00,
2013-09-04 20:08:00,79.6,60.9,30.04,NNE,12,0.0,0.0,53,0.00,,,0.00,VWS V13.01,2013-09-05 01:08:00,
2013-09-04 20:13:00,79.0,61.0,30.04,NNE,12,0.0,0.0,54,0.00,,,0.00,VWS V13.01,2013-09-05 01:13:00,
2013-09-04 20:18:00,78.8,61.3,30.04,NNE,12,0.0,0.0,55,0.00,,,0.00,VWS V13.01,2013-09-05 01:18:00,
2013-09-04 20:23:00,78.7,61.2,30.04,NNE,12,0.0,0.0,55,0.00,,,0.00,VWS V13.01,2013-09-05 01:23:00,
2013-09-04 20:28:00,78.5,61.5,30.04,NNE,12,0.0,0.0,56,0.00,,,0.00,VWS V13.01,2013-09-05 01:28:00,
2013-09-04 20:33:00,78.1,61.7,30.04,NNE,12,0.0,0.0,57,0.00,,,0.00,VWS V13.01,2013-09-05 01:33:00,
2013-09-04 20:38:00,77.2,61.3,30.04,NNE,12,0.0,0.0,58,0.00,,,0.00,VWS V13.01,2013-09-05 01:38:00,
2013-09-04 20:43:00,76.7,61.3,30.04,NNE,12,0.0,0.0,59,0.00,,,0.00,VWS V13.01,2013-09-05 01:43:00,
2013-09-04 20:48:00,76.0,61.1,30.04,NNE,12,0.0,0.0,60,0.00,,,0.00,VWS V13.01,2013-09-05 01:48:00,
2013-09-04 20:53:00,75.4,61.0,30.04,NNE,12,0.0,0.0,61,0.00,,,0.00,VWS V13.01,2013-09-05 01:53:00,
2013-09-04 20:58:00,75.1,61.2,30.04,NNE,12,0.0,0.0,62,0.00,,,0.00,VWS V13.01,2013-09-05 01:58:00,
2013-09-04 21:03:00,74.5,61.1,30.04,NNE,12,0.0,0.0,63,0.00,,,0.00,VWS V13.01,2013-09-05 02:03:00,
2013-09-04 21:08:00,74.2,61.7,30.04,NNE,12,0.0,0.0,65,0.00,,,0.00,VWS V13.01,2013-09-05 02:08:00,
2013-09-04 21:13:00,73.6,61.1,30.04,NNE,12,0.0,0.0,65,0.00,,,0.00,VWS V13.01,2013-09-05 02:13:00,
2013-09-04 21:18:00,73.3,61.2,30.07,NNE,12,0.0,0.0,66,0.00,,,0.00,VWS V13.01,2013-09-05 02:18:00,
2013-09-04 21:23:00,72.9,60.9,30.07,NNE,12,0.0,0.0,66,0.00,,,0.00,VWS V13.01,2013-09-05 02:23:00,
2013-09-04 21:28:00,72.7,61.6,30.07,NNE,12,0.0,0.0,68,0.00,,,0.00,VWS V13.01,2013-09-05 02:28:00,
2013-09-04 21:33:00,72.2,61.5,30.07,NNE,12,0.0,0.0,69,0.00,,,0.00,VWS V13.01,2013-09-05 02:33:00,
2013-09-04 21:38:00,71.8,61.1,30.07,North,1,0.0,0.0,69,0.00,,,0.00,VWS V13.01,2013-09-05 02:38:00,
2013-09-04 21:43:00,71.8,60.7,30.07,North,1,0.0,0.0,68,0.00,,,0.00,VWS V13.01,2013-09-05 02:43:00,
2013-09-04 21:48:00,71.6,60.9,30.07,North,1,0.0,0.0,69,0.00,,,0.00,VWS V13.01,2013-09-05 02:48:00,
2013-09-04 21:53:00,71.5,61.2,30.07,North,2,0.0,0.0,70,0.00,,,0.00,VWS V13.01,2013-09-05 02:53:00,
2013-09-04 21:58:00,71.3,61.0,30.07,North,2,0.0,0.0,70,0.00,,,0.00,VWS V13.01,2013-09-05 02:58:00,
2013-09-04 22:03:00,70.9,60.7,30.07,North,2,0.0,0.0,70,0.00,,,0.00,VWS V13.01,2013-09-05 03:03:00,
2013-09-04 22:08:00,70.7,60.9,30.07,North,2,0.0,0.0,71,0.00,,,0.00,VWS V13.01,2013-09-05 03:08:00,
2013-09-04 22:13:00,70.2,60.4,30.07,North,11,0.0,0.0,71,0.00,,,0.00,VWS V13.01,2013-09-05 03:13:00,
2013-09-04 22:18:00,69.8,60.0,30.07,North,11,0.0,0.0,71,0.00,,,0.00,VWS V13.01,2013-09-05 03:18:00,
2013-09-04 22:23:00,69.7,59.8,30.07,North,11,0.0,0.0,71,0.00,,,0.00,VWS V13.01,2013-09-05 03:23:00,
2013-09-04 22:28:00,69.3,59.9,30.07,North,11,0.0,0.0,72,0.00,,,0.00,VWS V13.01,2013-09-05 03:28:00,
2013-09-04 22:33:00,69.3,60.3,30.07,North,11,0.0,0.0,73,0.00,,,0.00,VWS V13.01,2013-09-05 03:33:00,
2013-09-04 22:38:00,68.9,60.3,30.07,SSE,147,0.0,0.0,74,0.00,,,0.00,VWS V13.01,2013-09-05 03:38:00,
2013-09-04 22:43:00,68.8,60.5,30.07,SE,135,2.2,2.2,75,0.00,,,0.00,VWS V13.01,2013-09-05 03:43:00,
2013-09-04 22:48:00,68.9,60.3,30.07,East,97,2.2,2.2,74,0.00,,,0.00,VWS V13.01,2013-09-05 03:48:00,
2013-09-04 22:52:00,69.3,60.3,30.07,ENE,57,0.0,0.0,73,0.00,,,0.00,VWS V13.01,2013-09-05 03:52:00,
2013-09-04 22:57:00,69.7,60.6,30.07,ENE,57,0.0,0.0,73,0.00,,,0.00,VWS V13.01,2013-09-05 03:57:00,
2013-09-04 23:01:00,69.8,60.8,30.10,ENE,57,0.0,0.0,73,0.00,,,0.00,VWS V13.01,2013-09-05 04:01:00,
2013-09-04 23:06:00,69.8,60.8,30.10,NE,35,0.0,0.0,73,0.00,,,0.00,VWS V13.01,2013-09-05 04:06:00,
2013-09-04 23:11:00,69.5,60.5,30.10,NNW,348,0.0,0.0,73,0.00,,,0.00,VWS V13.01,2013-09-05 04:11:00,
2013-09-04 23:16:00,69.3,60.3,30.10,NNW,348,0.0,0.0,73,0.00,,,0.00,VWS V13.01,2013-09-05 04:16:00,
2013-09-04 23:21:00,69.1,60.5,30.10,NNW,348,0.0,0.0,74,0.00,,,0.00,VWS V13.01,2013-09-05 04:21:00,
2013-09-04 23:26:00,68.9,60.7,30.10,NNW,348,0.0,0.0,75,0.00,,,0.00,VWS V13.01,2013-09-05 04:26:00,
2013-09-04 23:31:00,68.8,60.5,30.10,NNW,348,0.0,0.0,75,0.00,,,0.00,VWS V13.01,2013-09-05 04:31:00,
2013-09-04 23:36:00,68.8,60.5,30.10,NNW,348,0.0,0.0,75,0.00,,,0.00,VWS V13.01,2013-09-05 04:36:00,
2013-09-04 23:41:00,68.4,60.2,30.10,NNW,348,0.0,0.0,75,0.00,,,0.00,VWS V13.01,2013-09-05 04:41:00,
2013-09-04 23:46:00,68.0,60.2,30.10,NNW,348,0.0,0.0,76,0.00,,,0.00,VWS V13.01,2013-09-05 04:46:00,
2013-09-04 23:51:00,67.7,59.8,30.10,North,349,0.0,0.0,76,0.00,,,0.00,VWS V13.01,2013-09-05 04:51:00,
2013-09-04 23:56:00,67.1,59.7,30.10,North,349,0.0,0.0,77,0.00,,,0.00,VWS V13.01,2013-09-05 04:56:00,